Trepassey, Canada
Current Conditions -  °F | °C
As of 8:00 PM on Saturday 25 Oct 2014 (Local Time) from CYYT Reporting Station
Drizzle Drizzle  
Wind Chill: 41°   Ceiling: 100
Heat Index: 46°   Visibility: 0.25mi
Dew Point: 46°   Wind: 13mph
Humidity: 100%   Direction: 40°NE
Pressure: 29.36"   Gusts: NA
Location:  46.73°N, 53.37°W
Report Text: CYYT 252200Z 04011KT 1/4SM R11/1600FT/N -DZ FG VV001 08/08 A2936 RMK FG8 SLP945
Loading
Personal Weather Stations






























Interactive Weather Map
Tropical Storm Tracking
New forecast layout! Learn more

10-Day Weather Forecast

Advertisements
Track Severe Weather on mobile